createdAt,value
2023-03-29T00:01:34.892Z,71.43
2023-03-29T00:04:02.455Z,69.21
2023-03-29T00:06:33.284Z,70.31
2023-03-29T00:08:57.122Z,71.46
2023-03-29T00:11:22.919Z,69.59
2023-03-29T00:13:46.535Z,70.06
2023-03-29T00:16:12.964Z,71.09
2023-03-29T00:18:36.786Z,70.59
2023-03-29T00:21:02.103Z,70.17
2023-03-29T00:23:26.230Z,69.60
2023-03-29T00:25:49.915Z,72.80
2023-03-29T00:28:15.048Z,69.85
2023-03-29T00:30:38.661Z,70.03
2023-03-29T00:33:02.690Z,71.70
2023-03-29T00:35:27.189Z,69.64
2023-03-29T00:37:53.059Z,70.76
2023-03-29T00:40:17.047Z,69.82
2023-03-29T00:42:41.137Z,71.21
2023-03-29T00:45:11.464Z,72.23
2023-03-29T00:47:41.700Z,71.70
2023-03-29T00:50:14.367Z,72.98
2023-03-29T00:52:40.446Z,72.61
2023-03-29T00:55:21.788Z,71.18
2023-03-29T00:57:47.066Z,71.87
2023-03-29T01:00:15.496Z,72.12
2023-03-29T01:02:41.168Z,72.20
2023-03-29T01:05:09.915Z,70.18
2023-03-29T01:07:42.716Z,73.61
2023-03-29T01:10:12.127Z,72.66
2023-03-29T01:12:42.287Z,71.38
2023-03-29T01:15:12.399Z,73.75
2023-03-29T01:17:37.341Z,74.60
2023-03-29T01:20:13.575Z,73.51
2023-03-29T01:22:51.428Z,72.51
2023-03-29T01:25:26.274Z,72.25
2023-03-29T01:27:56.186Z,71.11
2023-03-29T01:30:28.448Z,72.59
2023-03-29T01:32:57.178Z,72.66
2023-03-29T01:35:26.698Z,71.34
2023-03-29T01:37:58.474Z,71.94
2023-03-29T01:40:22.177Z,70.63
2023-03-29T01:42:56.469Z,70.91
2023-03-29T01:45:26.418Z,72.13
2023-03-29T01:48:19.733Z,74.52
2023-03-29T01:50:47.606Z,74.17
2023-03-29T01:53:17.632Z,74.09
2023-03-29T01:55:46.038Z,74.93
2023-03-29T01:58:13.741Z,73.24
2023-03-29T02:00:39.889Z,71.83
2023-03-29T02:03:09.628Z,72.58
2023-03-29T02:05:35.039Z,72.00
2023-03-29T02:08:00.158Z,72.23
2023-03-29T02:10:25.904Z,71.92
2023-03-29T02:12:49.693Z,72.44
2023-03-29T02:15:18.487Z,71.88
2023-03-29T02:17:44.212Z,71.88
2023-03-29T02:20:14.709Z,73.90
2023-03-29T02:22:44.109Z,72.19
2023-03-29T02:25:10.043Z,71.83
2023-03-29T02:27:37.807Z,75.17
2023-03-29T02:30:01.922Z,73.22
2023-03-29T02:32:35.616Z,74.04
2023-03-29T02:35:04.622Z,75.29
2023-03-29T02:37:31.366Z,73.73
2023-03-29T02:39:55.442Z,73.15
2023-03-29T02:42:20.845Z,74.47
2023-03-29T02:44:48.754Z,72.58
2023-03-29T02:47:19.663Z,75.69
2023-03-29T02:49:45.160Z,74.21
2023-03-29T02:52:14.844Z,76.76
2023-03-29T02:54:43.095Z,74.43
2023-03-29T02:57:07.547Z,73.55
2023-03-29T02:59:32.006Z,73.82
2023-03-29T03:01:55.783Z,72.78
2023-03-29T03:04:21.600Z,72.43
2023-03-29T03:06:46.955Z,73.07
2023-03-29T03:09:10.853Z,73.46
2023-03-29T03:11:37.563Z,74.26
2023-03-29T03:14:01.281Z,72.89
2023-03-29T03:16:26.205Z,72.39
2023-03-29T03:18:51.278Z,73.41
2023-03-29T03:21:14.912Z,72.10
2023-03-29T03:23:40.474Z,70.98
2023-03-29T03:26:05.066Z,71.38
2023-03-29T03:28:30.089Z,72.00
2023-03-29T03:30:54.239Z,72.62
2023-03-29T03:33:36.732Z,72.53
2023-03-29T03:36:31.462Z,74.31
2023-03-29T03:38:57.134Z,73.02
2023-03-29T03:41:20.919Z,73.75
2023-03-29T03:43:48.720Z,73.11
2023-03-29T03:46:13.019Z,73.39
2023-03-29T03:48:37.323Z,73.85
2023-03-29T03:51:16.075Z,73.45
2023-03-29T03:53:40.749Z,72.43
2023-03-29T03:56:13.954Z,72.96
2023-03-29T03:59:01.180Z,73.31
2023-03-29T04:01:28.385Z,72.77
2023-03-29T04:04:01.653Z,72.75
2023-03-29T04:06:25.590Z,73.09
2023-03-29T04:09:09.303Z,72.54
2023-03-29T04:11:38.226Z,72.50
2023-03-29T04:14:03.191Z,71.83
2023-03-29T04:16:48.320Z,71.56
2023-03-29T04:19:31.105Z,71.84
2023-03-29T04:21:54.865Z,71.04
2023-03-29T04:24:18.763Z,70.80
2023-03-29T04:27:00.614Z,70.91
2023-03-29T04:29:24.531Z,70.89
2023-03-29T04:31:56.499Z,72.30
2023-03-29T04:34:45.855Z,72.13
2023-03-29T04:37:10.606Z,70.96
2023-03-29T04:39:34.736Z,71.87
2023-03-29T04:42:03.058Z,71.37
2023-03-29T04:44:28.156Z,70.01
2023-03-29T04:46:54.477Z,71.05
2023-03-29T04:49:44.152Z,70.59
2023-03-29T04:52:15.737Z,70.50
2023-03-29T04:54:40.533Z,70.90
2023-03-29T04:57:35.400Z,71.68
2023-03-29T05:00:15.128Z,71.33
2023-03-29T05:03:02.008Z,70.53
2023-03-29T05:05:28.694Z,70.53
2023-03-29T05:07:54.948Z,70.09
2023-03-29T05:10:24.476Z,71.16
2023-03-29T05:12:53.966Z,69.96
2023-03-29T05:15:19.395Z,70.41
2023-03-29T05:17:44.136Z,69.81
2023-03-29T05:20:11.298Z,69.70
2023-03-29T05:22:36.360Z,69.28
2023-03-29T05:25:00.768Z,69.49
2023-03-29T05:27:24.792Z,69.00
2023-03-29T05:30:04.749Z,68.28
2023-03-29T05:32:51.301Z,68.80
2023-03-29T05:35:20.144Z,69.03
2023-03-29T05:37:43.887Z,69.73
2023-03-29T05:40:12.939Z,68.60
2023-03-29T05:43:12.216Z,67.80
2023-03-29T05:45:37.501Z,67.44
2023-03-29T05:48:01.480Z,68.25
2023-03-29T05:50:26.121Z,68.04
2023-03-29T05:52:53.106Z,67.61
2023-03-29T05:55:16.934Z,67.47
2023-03-29T05:57:40.763Z,67.03
2023-03-29T06:00:20.094Z,67.45
2023-03-29T06:02:45.708Z,66.23
2023-03-29T06:05:10.125Z,66.02
2023-03-29T06:07:39.903Z,67.11
2023-03-29T06:10:21.955Z,66.69
2023-03-29T06:12:51.625Z,66.71
2023-03-29T06:15:18.882Z,68.08
2023-03-29T06:18:04.694Z,66.22
2023-03-29T06:20:29.955Z,65.45
2023-03-29T06:23:00.131Z,64.85
2023-03-29T06:25:23.856Z,66.22
2023-03-29T06:27:47.893Z,65.86
2023-03-29T06:30:15.470Z,64.79
2023-03-29T06:32:43.449Z,63.42
2023-03-29T06:35:25.278Z,64.68
2023-03-29T06:37:56.488Z,64.46
2023-03-29T06:40:48.332Z,64.42
2023-03-29T06:43:13.090Z,63.46
2023-03-29T06:45:49.457Z,65.05
2023-03-29T06:48:23.588Z,64.37
2023-03-29T06:50:49.448Z,61.50
2023-03-29T06:53:15.661Z,61.73
2023-03-29T06:55:41.389Z,61.54
2023-03-29T06:58:28.821Z,60.29
2023-03-29T07:01:02.664Z,61.00
2023-03-29T07:03:49.696Z,61.29
2023-03-29T07:06:20.565Z,59.94
2023-03-29T07:08:47.417Z,60.13
2023-03-29T07:11:22.502Z,60.83
2023-03-29T07:13:52.213Z,58.96
2023-03-29T07:16:18.132Z,60.33
2023-03-29T07:18:49.113Z,60.26
2023-03-29T07:21:28.815Z,58.54
2023-03-29T07:23:54.137Z,59.42
2023-03-29T07:26:28.553Z,61.54
2023-03-29T07:28:54.976Z,59.13
2023-03-29T07:31:18.697Z,58.86
2023-03-29T07:33:49.644Z,59.23
2023-03-29T07:36:13.760Z,58.99
2023-03-29T07:38:39.912Z,58.49
2023-03-29T07:41:11.385Z,57.90
2023-03-29T07:43:42.936Z,59.05
2023-03-29T07:48:37.235Z,58.10
2023-03-29T07:51:11.930Z,56.98
2023-03-29T07:53:47.499Z,54.85
2023-03-29T07:56:30.264Z,55.41
2023-03-29T07:59:14.124Z,55.54
2023-03-29T08:01:41.118Z,55.48
2023-03-29T08:04:21.612Z,55.02
2023-03-29T08:07:03.974Z,54.67
2023-03-29T08:09:47.727Z,53.92
2023-03-29T08:12:11.656Z,55.96
2023-03-29T08:14:36.190Z,55.11
2023-03-29T08:17:13.923Z,54.79
2023-03-29T08:19:51.410Z,54.08
2023-03-29T08:22:20.589Z,55.01
2023-03-29T08:25:17.031Z,53.95
2023-03-29T08:27:45.426Z,54.46
2023-03-29T08:30:14.873Z,55.75
2023-03-29T08:32:39.237Z,53.82
2023-03-29T08:35:04.847Z,54.73
2023-03-29T08:37:34.825Z,54.93
2023-03-29T08:39:58.844Z,53.72
2023-03-29T08:43:01.847Z,54.17
2023-03-29T08:45:39.514Z,54.17
2023-03-29T08:48:17.866Z,53.13
2023-03-29T08:50:48.021Z,51.87
2023-03-29T08:53:18.835Z,50.50
2023-03-29T08:56:11.775Z,51.04
2023-03-29T08:58:58.423Z,50.45
2023-03-29T09:01:31.120Z,48.74
2023-03-29T09:04:06.113Z,50.46
2023-03-29T09:06:47.558Z,50.45
2023-03-29T09:09:20.319Z,49.10
2023-03-29T09:12:04.257Z,48.27
2023-03-29T09:14:51.352Z,49.39
2023-03-29T09:17:30.691Z,51.36
2023-03-29T09:20:06.483Z,49.69
2023-03-29T09:22:39.930Z,50.89
2023-03-29T09:25:13.370Z,50.10
2023-03-29T09:27:50.538Z,48.89
2023-03-29T09:30:36.441Z,49.37
2023-03-29T09:33:07.779Z,49.02
2023-03-29T09:35:56.416Z,49.38
2023-03-29T09:38:23.012Z,50.36
2023-03-29T09:40:51.541Z,47.25
2023-03-29T09:43:30.182Z,46.54
2023-03-29T09:46:00.186Z,47.50
2023-03-29T09:48:26.532Z,47.47
2023-03-29T09:50:53.660Z,46.51
2023-03-29T09:53:19.748Z,47.12
2023-03-29T09:55:53.125Z,45.12
2023-03-29T09:58:32.938Z,47.24
2023-03-29T10:01:03.221Z,44.83
2023-03-29T10:03:29.920Z,45.55
2023-03-29T10:06:05.350Z,46.82
2023-03-29T10:08:31.877Z,46.37
2023-03-29T10:10:59.949Z,43.87
2023-03-29T10:13:30.490Z,46.11
2023-03-29T10:16:03.785Z,45.45
2023-03-29T10:18:32.615Z,45.95
2023-03-29T10:21:03.194Z,47.59
2023-03-29T10:23:34.065Z,46.66
2023-03-29T10:25:57.870Z,45.75
2023-03-29T10:28:22.941Z,46.40
2023-03-29T10:30:54.118Z,46.34
2023-03-29T10:33:24.076Z,46.54
2023-03-29T10:35:50.543Z,47.37
2023-03-29T10:38:18.315Z,45.90
2023-03-29T10:40:45.834Z,45.38
2023-03-29T10:43:16.120Z,47.87
2023-03-29T10:45:41.193Z,47.64
2023-03-29T10:48:07.927Z,46.89
2023-03-29T10:50:38.072Z,49.00
2023-03-29T10:53:03.557Z,46.51
2023-03-29T10:55:35.696Z,48.21
2023-03-29T10:58:09.832Z,48.15
2023-03-29T11:00:39.453Z,48.47
2023-03-29T11:03:30.826Z,48.52
2023-03-29T11:06:04.305Z,47.99
2023-03-29T11:08:50.536Z,50.20
2023-03-29T11:11:41.305Z,49.57
2023-03-29T11:14:15.938Z,48.36
2023-03-29T11:16:46.976Z,47.98
2023-03-29T11:19:44.384Z,48.34
2023-03-29T11:22:15.199Z,48.26
2023-03-29T11:24:53.715Z,49.79
2023-03-29T11:27:31.819Z,49.12
2023-03-29T11:30:12.358Z,49.35
2023-03-29T11:32:47.036Z,49.41
2023-03-29T11:35:38.476Z,47.70
2023-03-29T11:38:15.206Z,47.61
2023-03-29T11:40:53.442Z,48.61
2023-03-29T11:43:25.242Z,47.58
2023-03-29T11:45:56.013Z,46.77
2023-03-29T11:48:25.414Z,47.73
2023-03-29T11:50:56.446Z,48.05
2023-03-29T11:53:29.535Z,46.81
2023-03-29T11:55:56.135Z,47.41
2023-03-29T11:58:25.306Z,47.27
2023-03-29T12:00:55.440Z,46.80
2023-03-29T12:03:34.485Z,46.88
2023-03-29T12:06:05.083Z,46.02
2023-03-29T12:08:33.983Z,48.02
2023-03-29T12:11:05.330Z,46.48
2023-03-29T12:13:33.492Z,47.35
2023-03-29T12:16:04.023Z,46.40
2023-03-29T12:18:34.138Z,47.72
2023-03-29T12:21:03.209Z,45.71
2023-03-29T12:23:32.348Z,48.14
2023-03-29T12:26:06.976Z,49.04
2023-03-29T12:29:15.176Z,45.10
2023-03-29T12:31:45.990Z,46.39
2023-03-29T12:34:36.321Z,46.18
2023-03-29T12:37:33.768Z,46.85
2023-03-29T12:40:20.004Z,47.42
2023-03-29T12:43:07.000Z,46.44
2023-03-29T12:46:09.504Z,46.28
2023-03-29T12:48:34.127Z,47.10
2023-03-29T12:51:02.257Z,48.30
2023-03-29T12:53:28.809Z,48.04
2023-03-29T12:56:09.631Z,48.81
2023-03-29T12:59:09.047Z,47.47
2023-03-29T13:01:35.040Z,48.06
2023-03-29T13:04:18.609Z,49.39
2023-03-29T13:07:04.089Z,47.65
2023-03-29T13:09:30.392Z,48.34
2023-03-29T13:11:57.575Z,49.13
2023-03-29T13:14:24.891Z,49.13
2023-03-29T13:16:49.327Z,47.76
2023-03-29T13:19:28.486Z,48.54
2023-03-29T13:22:05.841Z,47.21
2023-03-29T13:24:53.022Z,48.11
2023-03-29T13:27:31.754Z,47.72
2023-03-29T13:30:25.364Z,47.97
2023-03-29T13:32:57.228Z,48.38
2023-03-29T13:35:33.239Z,47.35
2023-03-29T13:38:09.028Z,47.90
2023-03-29T13:40:44.766Z,46.79
2023-03-29T13:43:23.591Z,48.53
2023-03-29T13:46:04.506Z,47.06
2023-03-29T13:48:30.459Z,47.77
2023-03-29T13:50:57.093Z,47.85
2023-03-29T13:53:29.239Z,48.57
2023-03-29T13:55:55.598Z,48.63
2023-03-29T13:58:34.149Z,47.91
2023-03-29T14:01:04.184Z,47.96
2023-03-29T14:03:30.772Z,48.81
2023-03-29T14:06:00.271Z,49.27
2023-03-29T14:08:29.826Z,49.41
2023-03-29T14:10:55.092Z,47.55
2023-03-29T14:13:24.043Z,48.78
2023-03-29T14:15:51.534Z,49.11
2023-03-29T14:18:19.066Z,47.59
2023-03-29T14:20:46.252Z,48.10
2023-03-29T14:23:14.995Z,47.37
2023-03-29T14:25:41.329Z,48.74
2023-03-29T14:28:22.363Z,48.22
2023-03-29T14:30:49.828Z,49.21
2023-03-29T14:33:15.219Z,49.25
2023-03-29T14:35:40.528Z,49.94
2023-03-29T14:38:04.331Z,49.40
2023-03-29T14:40:28.201Z,49.84
2023-03-29T14:42:52.526Z,49.81
2023-03-29T14:45:19.727Z,49.74
2023-03-29T14:47:45.990Z,51.46
2023-03-29T14:50:20.911Z,50.14
2023-03-29T14:52:46.995Z,51.33
2023-03-29T14:55:12.697Z,50.87
2023-03-29T14:57:38.201Z,51.00
2023-03-29T15:00:13.425Z,50.41
2023-03-29T15:02:38.848Z,50.98
2023-03-29T15:05:04.871Z,51.24
2023-03-29T15:07:29.866Z,51.87
2023-03-29T15:09:53.813Z,52.19
2023-03-29T15:12:17.958Z,51.97
2023-03-29T15:14:42.093Z,51.84
2023-03-29T15:17:42.647Z,52.16
2023-03-29T15:20:21.580Z,53.14
2023-03-29T15:22:57.893Z,53.43
2023-03-29T15:25:22.948Z,54.17
2023-03-29T15:27:50.715Z,54.52
2023-03-29T15:30:18.159Z,55.05
2023-03-29T15:32:41.966Z,55.66
2023-03-29T15:35:09.353Z,55.12
2023-03-29T15:37:34.626Z,54.88
2023-03-29T15:39:59.042Z,54.60
2023-03-29T15:42:22.733Z,55.30
2023-03-29T15:44:46.402Z,54.18
2023-03-29T15:47:12.121Z,54.98
2023-03-29T15:49:36.138Z,54.23
2023-03-29T15:51:59.915Z,54.23
2023-03-29T15:54:25.778Z,54.00
2023-03-29T15:56:54.087Z,54.79
2023-03-29T15:59:19.256Z,54.38
2023-03-29T16:01:43.102Z,55.22
2023-03-29T16:04:10.585Z,55.16
2023-03-29T16:06:36.239Z,56.37
2023-03-29T16:09:00.117Z,55.60
2023-03-29T16:11:25.417Z,56.57
2023-03-29T16:13:49.244Z,55.49
2023-03-29T16:16:13.283Z,55.37
2023-03-29T16:18:36.944Z,56.15
2023-03-29T16:21:00.842Z,56.65
2023-03-29T16:23:24.550Z,55.35
2023-03-29T16:25:48.239Z,55.80
2023-03-29T16:28:13.536Z,54.58
2023-03-29T16:30:39.250Z,55.88
2023-03-29T16:33:06.341Z,54.92
2023-03-29T16:35:32.952Z,54.06
2023-03-29T16:37:56.818Z,54.60
2023-03-29T16:40:21.076Z,55.12
2023-03-29T16:42:45.390Z,55.57
2023-03-29T16:45:14.944Z,54.97
2023-03-29T16:47:39.553Z,55.21
2023-03-29T16:50:03.297Z,56.19
2023-03-29T16:52:27.701Z,56.17
2023-03-29T16:54:53.045Z,55.99
2023-03-29T16:57:16.858Z,55.96
2023-03-29T16:59:42.314Z,56.27
2023-03-29T17:02:07.350Z,55.81
2023-03-29T17:04:31.471Z,55.03
2023-03-29T17:06:55.350Z,56.75
2023-03-29T17:09:19.036Z,56.55
2023-03-29T17:11:42.766Z,55.27
2023-03-29T17:14:06.485Z,55.94
2023-03-29T17:16:30.324Z,54.82
2023-03-29T17:18:55.472Z,55.62
2023-03-29T17:21:19.184Z,55.45
2023-03-29T17:23:42.993Z,55.84
2023-03-29T17:26:07.805Z,55.62
2023-03-29T17:28:31.415Z,56.73
2023-03-29T17:30:55.240Z,56.08
2023-03-29T17:33:22.840Z,55.62
2023-03-29T17:35:48.592Z,56.25
2023-03-29T17:38:12.760Z,55.24
2023-03-29T17:40:36.471Z,55.29
2023-03-29T17:43:00.180Z,56.21
2023-03-29T17:45:24.021Z,56.58
2023-03-29T17:47:47.770Z,55.86
2023-03-29T17:50:13.891Z,55.69
2023-03-29T17:52:39.604Z,55.77
2023-03-29T17:55:03.505Z,57.06
2023-03-29T17:57:27.111Z,56.09
2023-03-29T17:59:50.813Z,57.11
2023-03-29T18:02:19.210Z,56.96
2023-03-29T18:04:42.922Z,57.84
2023-03-29T18:07:06.530Z,57.85
2023-03-29T18:09:31.748Z,57.16
2023-03-29T18:11:55.490Z,56.61
2023-03-29T18:14:21.284Z,57.38
2023-03-29T18:16:45.010Z,57.57
2023-03-29T18:19:10.745Z,58.24
2023-03-29T18:21:34.566Z,57.49
2023-03-29T18:23:58.297Z,58.19
2023-03-29T18:26:24.186Z,58.40
2023-03-29T18:28:48.445Z,58.41
2023-03-29T18:31:12.182Z,58.57
2023-03-29T18:33:36.354Z,58.76
2023-03-29T18:36:00.162Z,58.14
2023-03-29T18:38:24.487Z,58.97
2023-03-29T18:40:48.293Z,57.71
2023-03-29T18:43:13.522Z,58.30
2023-03-29T18:45:37.455Z,58.86
2023-03-29T18:48:02.166Z,57.85
2023-03-29T18:50:25.879Z,57.99
2023-03-29T18:52:49.615Z,58.05
2023-03-29T18:55:13.287Z,58.21
2023-03-29T18:57:37.250Z,58.73
2023-03-29T19:00:02.466Z,58.66
2023-03-29T19:02:26.185Z,59.61
2023-03-29T19:04:50.181Z,59.98
2023-03-29T19:07:13.915Z,60.20
2023-03-29T19:09:37.641Z,60.97
2023-03-29T19:12:01.329Z,60.89
2023-03-29T19:14:25.337Z,60.51
2023-03-29T19:16:50.856Z,61.41
2023-03-29T19:19:14.505Z,61.08
2023-03-29T19:21:38.622Z,61.68
2023-03-29T19:24:05.080Z,60.91
2023-03-29T19:26:29.535Z,62.50
2023-03-29T19:28:53.228Z,62.46
2023-03-29T19:31:16.992Z,61.32
2023-03-29T19:33:42.134Z,61.07
2023-03-29T19:36:06.851Z,61.28
2023-03-29T19:38:30.905Z,61.64
2023-03-29T19:40:54.616Z,62.97
2023-03-29T19:43:18.635Z,61.25
2023-03-29T19:45:42.513Z,60.64
2023-03-29T19:48:07.164Z,60.70
2023-03-29T19:50:32.791Z,62.12
2023-03-29T19:52:58.534Z,60.67
2023-03-29T19:55:22.473Z,62.13
2023-03-29T19:57:46.212Z,62.77
2023-03-29T20:00:11.704Z,62.29
2023-03-29T20:02:38.264Z,61.96
2023-03-29T20:05:02.019Z,62.73
2023-03-29T20:07:27.183Z,62.74
2023-03-29T20:09:50.961Z,61.48
2023-03-29T20:12:14.721Z,61.37
2023-03-29T20:14:40.335Z,62.49
2023-03-29T20:17:04.589Z,62.48
2023-03-29T20:19:30.103Z,62.44
2023-03-29T20:21:57.431Z,61.83
2023-03-29T20:24:23.152Z,62.78
2023-03-29T20:26:46.923Z,63.36
2023-03-29T20:29:10.681Z,61.92
2023-03-29T20:31:34.615Z,61.47
2023-03-29T20:33:58.716Z,62.41
2023-03-29T20:36:23.387Z,61.74
2023-03-29T20:38:47.228Z,62.54
2023-03-29T20:41:13.922Z,62.93
2023-03-29T20:43:38.361Z,63.00
2023-03-29T20:46:02.129Z,62.32
2023-03-29T20:48:31.623Z,62.82
2023-03-29T20:50:55.439Z,61.66
2023-03-29T20:53:20.742Z,63.13
2023-03-29T20:55:44.685Z,63.46
2023-03-29T20:58:10.595Z,64.81
2023-03-29T21:00:37.646Z,63.73
2023-03-29T21:03:03.848Z,64.68
2023-03-29T21:05:28.482Z,64.04
2023-03-29T21:07:54.615Z,63.71
2023-03-29T21:10:18.940Z,62.69
2023-03-29T21:12:43.705Z,63.21
2023-03-29T21:15:10.710Z,64.46
2023-03-29T21:17:34.496Z,64.46
2023-03-29T21:19:58.239Z,63.02
2023-03-29T21:22:23.267Z,64.24
2023-03-29T21:24:46.876Z,64.34
2023-03-29T21:27:10.957Z,64.56
2023-03-29T21:29:35.050Z,63.87
2023-03-29T21:32:00.311Z,65.97
2023-03-29T21:34:24.144Z,65.68
2023-03-29T21:36:48.296Z,64.48
2023-03-29T21:39:12.074Z,65.27
2023-03-29T21:41:36.303Z,64.79
2023-03-29T21:44:00.342Z,65.67
2023-03-29T21:46:24.810Z,65.42
2023-03-29T21:48:50.092Z,65.15
2023-03-29T21:51:13.770Z,66.57
2023-03-29T21:53:37.992Z,64.51
2023-03-29T21:56:02.345Z,64.96
2023-03-29T21:58:26.266Z,64.87
2023-03-29T22:00:50.800Z,64.38
2023-03-29T22:03:15.046Z,64.44
2023-03-29T22:05:40.644Z,66.67
2023-03-29T22:08:05.353Z,65.89
2023-03-29T22:10:29.802Z,64.89
2023-03-29T22:12:53.711Z,65.17
2023-03-29T22:15:18.685Z,65.05
2023-03-29T22:17:42.903Z,65.28
2023-03-29T22:20:12.878Z,65.43
2023-03-29T22:22:38.055Z,65.48
2023-03-29T22:25:01.857Z,65.00
2023-03-29T22:27:25.579Z,66.76
2023-03-29T22:29:49.378Z,65.73
2023-03-29T22:32:13.101Z,65.21
2023-03-29T22:34:36.966Z,65.56
2023-03-29T22:37:00.647Z,65.51
2023-03-29T22:39:25.838Z,65.96
2023-03-29T22:41:49.498Z,65.55
2023-03-29T22:44:13.831Z,67.18
2023-03-29T22:46:37.512Z,66.52
2023-03-29T22:49:01.389Z,67.20
2023-03-29T22:51:25.186Z,67.50
2023-03-29T22:53:49.628Z,66.79
2023-03-29T22:56:15.550Z,67.43
2023-03-29T22:58:39.641Z,67.12
2023-03-29T23:01:03.802Z,67.08
2023-03-29T23:03:27.823Z,67.03
2023-03-29T23:05:52.380Z,66.95
2023-03-29T23:08:16.521Z,66.27
2023-03-29T23:10:40.182Z,67.09
2023-03-29T23:13:09.663Z,67.71
2023-03-29T23:15:33.996Z,68.40
2023-03-29T23:17:58.076Z,68.06
2023-03-29T23:20:21.902Z,69.04
2023-03-29T23:22:45.511Z,68.99
2023-03-29T23:25:10.174Z,70.48
2023-03-29T23:27:34.697Z,70.70
2023-03-29T23:30:01.612Z,69.53
2023-03-29T23:32:25.325Z,69.55
2023-03-29T23:34:49.041Z,72.02
2023-03-29T23:37:12.758Z,70.80
2023-03-29T23:39:36.445Z,71.50
2023-03-29T23:42:00.261Z,70.05
2023-03-29T23:44:24.185Z,71.24
2023-03-29T23:46:49.526Z,71.20
2023-03-29T23:49:14.043Z,71.99
2023-03-29T23:51:39.226Z,70.15
2023-03-29T23:54:03.329Z,72.70
2023-03-29T23:56:27.040Z,74.91
2023-03-29T23:58:50.969Z,73.68
